createdAt,value
2016-08-15T00:00:05.955Z,15.9
2016-08-15T00:00:19.337Z,16
2016-08-15T00:00:31.192Z,16
2016-08-15T00:00:46.036Z,16
2016-08-15T00:00:58.655Z,15.9
2016-08-15T00:01:13.518Z,15.9
2016-08-15T00:01:26.106Z,15.9
2016-08-15T00:01:40.990Z,15.9
2016-08-15T00:01:54.358Z,16
2016-08-15T00:02:08.489Z,15.9
2016-08-15T00:02:22.592Z,15.8
2016-08-15T00:02:37.464Z,15.9
2016-08-15T00:02:53.080Z,15.8
2016-08-15T00:03:06.437Z,15.7
2016-08-15T00:03:20.541Z,15.9
2016-08-15T00:03:33.213Z,15.9
2016-08-15T00:03:47.324Z,15.8
2016-08-15T00:04:01.414Z,15.8
2016-08-15T00:04:14.790Z,15.8
2016-08-15T00:04:30.403Z,15.8
2016-08-15T00:04:44.535Z,15.9
2016-08-15T00:04:57.984Z,15.9
2016-08-15T00:05:12.089Z,15.8
2016-08-15T00:05:27.702Z,15.8
2016-08-15T00:05:41.827Z,15.8
2016-08-15T00:05:54.460Z,15.8
2016-08-15T00:06:06.349Z,15.9
2016-08-15T00:06:19.711Z,15.9
2016-08-15T00:06:32.320Z,15.9
2016-08-15T00:06:44.179Z,15.8
2016-08-15T00:06:57.555Z,15.9
2016-08-15T00:07:11.736Z,15.9
2016-08-15T00:07:25.843Z,16
2016-08-15T00:07:39.211Z,15.9
2016-08-15T00:07:52.582Z,15.9
2016-08-15T00:08:07.452Z,15.9
2016-08-15T00:08:19.341Z,15.9
2016-08-15T00:08:31.959Z,15.9
2016-08-15T00:08:45.357Z,15.9
2016-08-15T00:08:59.473Z,15.9
2016-08-15T00:09:14.334Z,15.8
2016-08-15T00:09:28.449Z,15.8
2016-08-15T00:09:44.068Z,15.8
2016-08-15T00:09:55.955Z,15.8
2016-08-15T00:10:09.347Z,15.7
2016-08-15T00:10:24.215Z,15.8
2016-08-15T00:10:36.093Z,15.7
2016-08-15T00:10:50.209Z,15.7
2016-08-15T00:11:03.569Z,15.8
2016-08-15T00:11:14.682Z,15.7
2016-08-15T00:11:27.302Z,15.8
2016-08-15T00:11:39.196Z,15.8
2016-08-15T00:11:53.314Z,15.8
2016-08-15T00:12:06.731Z,15.8
2016-08-15T00:12:20.084Z,15.8
2016-08-15T00:12:34.202Z,15.7
2016-08-15T00:12:46.083Z,15.8
2016-08-15T00:12:59.502Z,15.7
2016-08-15T00:13:11.378Z,15.6
2016-08-15T00:13:24.743Z,15.7
2016-08-15T00:13:38.121Z,15.7
2016-08-15T00:13:51.506Z,15.8
2016-08-15T00:14:04.138Z,15.8
2016-08-15T00:14:18.996Z,15.8
2016-08-15T00:14:31.610Z,15.7
2016-08-15T00:14:45.732Z,15.7
2016-08-15T00:14:57.615Z,15.7
2016-08-15T00:15:11.004Z,15.7
2016-08-15T00:15:25.128Z,15.7
2016-08-15T00:15:39.235Z,15.7
2016-08-15T00:15:52.596Z,15.7
2016-08-15T00:16:06.723Z,15.7
2016-08-15T00:16:18.608Z,15.7
2016-08-15T00:16:32.730Z,15.7
2016-08-15T00:16:46.859Z,15.8
2016-08-15T00:17:00.220Z,15.8
2016-08-15T00:17:14.389Z,15.8
2016-08-15T00:17:27.785Z,15.8
2016-08-15T00:17:42.642Z,15.8
2016-08-15T00:17:56.772Z,15.7
2016-08-15T00:18:10.887Z,15.7
2016-08-15T00:18:23.527Z,15.8
2016-08-15T00:18:36.144Z,15.7
2016-08-15T00:18:48.041Z,15.7
2016-08-15T00:19:01.410Z,15.8
2016-08-15T00:19:14.016Z,15.7
2016-08-15T00:19:28.174Z,15.8
2016-08-15T00:19:40.784Z,15.7
2016-08-15T00:19:55.754Z,15.7
2016-08-15T00:20:09.871Z,15.7
2016-08-15T00:20:21.008Z,15.7
2016-08-15T00:20:35.879Z,15.7
2016-08-15T00:20:50.775Z,15.6
2016-08-15T00:21:04.881Z,15.6
2016-08-15T00:21:16.026Z,15.6
2016-08-15T00:21:30.893Z,15.6
2016-08-15T00:21:43.527Z,15.6
2016-08-15T00:21:57.636Z,15.7
2016-08-15T00:22:10.258Z,15.7
2016-08-15T00:22:25.132Z,15.6
2016-08-15T00:22:38.556Z,15.7
2016-08-15T00:22:48.934Z,15.7
2016-08-15T00:23:03.057Z,15.7
2016-08-15T00:23:17.190Z,15.7
2016-08-15T00:23:30.576Z,15.6
2016-08-15T00:23:43.972Z,15.7
2016-08-15T00:23:58.107Z,15.6
2016-08-15T00:24:11.482Z,15.6
2016-08-15T00:24:25.617Z,15.7
2016-08-15T00:24:40.477Z,15.6
2016-08-15T00:24:54.605Z,15.7
2016-08-15T00:25:10.220Z,15.7
2016-08-15T00:25:25.838Z,15.7
2016-08-15T00:25:38.467Z,15.6
2016-08-15T00:25:51.847Z,15.6
2016-08-15T00:26:03.742Z,15.6
2016-08-15T00:26:16.351Z,15.5
2016-08-15T00:26:30.445Z,15.5
2016-08-15T00:26:45.326Z,15.6
2016-08-15T00:26:57.944Z,15.5
2016-08-15T00:27:11.317Z,15.6
2016-08-15T00:27:25.437Z,15.6
2016-08-15T00:27:38.074Z,15.7
2016-08-15T00:27:52.199Z,15.6
2016-08-15T00:28:04.836Z,15.5
2016-08-15T00:28:17.479Z,15.5
2016-08-15T00:28:31.585Z,15.6
2016-08-15T00:28:45.700Z,15.6
2016-08-15T00:28:59.811Z,15.5
2016-08-15T00:29:14.672Z,15.5
2016-08-15T00:29:26.529Z,15.5
2016-08-15T00:29:40.653Z,15.5
2016-08-15T00:29:54.886Z,15.5
2016-08-15T00:30:09.754Z,15.5
2016-08-15T00:30:23.869Z,15.6
2016-08-15T00:30:38.743Z,15.7
2016-08-15T00:30:50.622Z,15.6
2016-08-15T00:31:05.505Z,15.6
2016-08-15T00:31:18.880Z,15.7
2016-08-15T00:31:32.247Z,15.6
2016-08-15T00:31:45.632Z,15.6
2016-08-15T00:31:58.339Z,15.5
2016-08-15T00:32:12.476Z,15.5
2016-08-15T00:32:28.086Z,15.6
2016-08-15T00:32:42.954Z,15.6
2016-08-15T00:32:56.351Z,15.5
2016-08-15T00:33:11.211Z,15.6
2016-08-15T00:33:24.578Z,15.6
2016-08-15T00:33:39.449Z,15.7
2016-08-15T00:33:50.634Z,15.6
2016-08-15T00:34:04.748Z,15.6
2016-08-15T00:34:19.624Z,15.6
2016-08-15T00:34:34.499Z,15.5
2016-08-15T00:34:49.370Z,15.6
2016-08-15T00:35:02.763Z,15.6
2016-08-15T00:35:16.873Z,15.6
2016-08-15T00:35:30.234Z,15.7
2016-08-15T00:35:42.093Z,15.7
2016-08-15T00:35:53.220Z,15.6
2016-08-15T00:36:04.346Z,15.7
2016-08-15T00:36:19.962Z,15.6
2016-08-15T00:36:32.572Z,15.6
2016-08-15T00:36:45.954Z,15.7
2016-08-15T00:37:00.112Z,15.7
2016-08-15T00:37:14.230Z,15.7
2016-08-15T00:37:26.838Z,15.6
2016-08-15T00:37:41.706Z,15.6
2016-08-15T00:37:55.818Z,15.8
2016-08-15T00:38:09.234Z,15.8
2016-08-15T00:38:23.354Z,15.8
2016-08-15T00:38:36.720Z,15.7
2016-08-15T00:38:47.854Z,15.7
2016-08-15T00:38:59.733Z,15.8
2016-08-15T00:39:14.595Z,15.8
2016-08-15T00:39:28.709Z,15.8
2016-08-15T00:39:44.333Z,15.8
2016-08-15T00:39:56.957Z,15.7
2016-08-15T00:40:12.579Z,15.8
2016-08-15T00:40:27.477Z,15.9
2016-08-15T00:40:42.337Z,15.8
2016-08-15T00:40:54.222Z,15.9
2016-08-15T00:41:07.595Z,15.8
2016-08-15T00:41:20.201Z,15.8
2016-08-15T00:41:35.094Z,15.8
2016-08-15T00:41:47.695Z,15.8
2016-08-15T00:42:01.804Z,15.8
2016-08-15T00:42:15.173Z,15.8
2016-08-15T00:42:30.040Z,15.9
2016-08-15T00:42:41.921Z,15.9
2016-08-15T00:42:55.299Z,16
2016-08-15T00:43:09.402Z,16
2016-08-15T00:43:22.767Z,16
2016-08-15T00:43:37.662Z,16
2016-08-15T00:43:51.769Z,16
2016-08-15T00:44:05.895Z,16.1
2016-08-15T00:44:20.762Z,16.1
2016-08-15T00:44:33.393Z,16.1
2016-08-15T00:44:48.289Z,16.1
2016-08-15T00:45:02.401Z,16.1
2016-08-15T00:45:15.780Z,16.1
2016-08-15T00:45:28.374Z,16.1
2016-08-15T00:45:40.986Z,16.2
2016-08-15T00:45:55.846Z,16.2
2016-08-15T00:46:10.709Z,16.2
2016-08-15T00:46:25.578Z,16.2
2016-08-15T00:46:40.435Z,16.2
2016-08-15T00:46:53.805Z,16.2
2016-08-15T00:47:08.730Z,16.2
2016-08-15T00:47:22.841Z,16.2
2016-08-15T00:47:36.957Z,16.2
2016-08-15T00:47:48.857Z,16.2
2016-08-15T00:48:02.975Z,16.2
2016-08-15T00:48:17.832Z,16.1
2016-08-15T00:48:31.217Z,16.1
2016-08-15T00:48:43.074Z,16.1
2016-08-15T00:48:56.470Z,16.2
2016-08-15T00:49:08.340Z,16.3
2016-08-15T00:49:21.706Z,16.2
2016-08-15T00:49:34.342Z,16.2
2016-08-15T00:49:49.200Z,16.2
2016-08-15T00:50:04.064Z,16.1
2016-08-15T00:50:18.189Z,16.1
2016-08-15T00:50:30.058Z,16.2
2016-08-15T00:50:44.927Z,16.2
2016-08-15T00:50:56.047Z,16.2
2016-08-15T00:51:08.658Z,16.2
2016-08-15T00:51:24.294Z,16.2
2016-08-15T00:51:39.162Z,16.2
2016-08-15T00:51:53.276Z,16.2
2016-08-15T00:52:07.372Z,16.2
2016-08-15T00:52:22.245Z,16.2
2016-08-15T00:52:37.861Z,16.1
2016-08-15T00:52:51.977Z,16.2
2016-08-15T00:53:06.115Z,16.2
2016-08-15T00:53:18.746Z,16.2
2016-08-15T00:53:30.631Z,16.3
2016-08-15T00:53:44.752Z,16.2
2016-08-15T00:53:55.939Z,16.1
2016-08-15T00:54:10.807Z,16.2
2016-08-15T00:54:24.918Z,16.2
2016-08-15T00:54:39.799Z,16.3
2016-08-15T00:54:53.916Z,16.3
2016-08-15T00:55:09.530Z,16.4
2016-08-15T00:55:20.666Z,16.4
2016-08-15T00:55:34.057Z,16.4
2016-08-15T00:55:45.913Z,16.4
2016-08-15T00:56:00.771Z,16.4
2016-08-15T00:56:14.888Z,16.5
2016-08-15T00:56:27.496Z,16.3
2016-08-15T00:56:40.142Z,16.3
2016-08-15T00:56:55.104Z,16.2
2016-08-15T00:57:09.977Z,16.4
2016-08-15T00:57:25.592Z,16.4
2016-08-15T00:57:38.221Z,16.3
2016-08-15T00:57:51.606Z,16.4
2016-08-15T00:58:04.214Z,16.4
2016-08-15T00:58:16.858Z,16.4
2016-08-15T00:58:30.233Z,16.4
2016-08-15T00:58:43.669Z,16.5
2016-08-15T00:58:57.106Z,16.5
2016-08-15T00:59:10.523Z,16.5
2016-08-15T00:59:23.145Z,16.5
2016-08-15T00:59:35.755Z,16.5
2016-08-15T00:59:49.867Z,16.5
2016-08-15T01:00:00.261Z,16.5
2016-08-15T01:00:12.128Z,16.5
2016-08-15T01:00:25.554Z,16.5
2016-08-15T01:00:37.433Z,16.4
2016-08-15T01:00:51.552Z,16.5
2016-08-15T01:01:04.160Z,16.5
2016-08-15T01:01:16.796Z,16.5
2016-08-15T01:01:29.425Z,16.6
2016-08-15T01:01:42.041Z,16.6
2016-08-15T01:01:56.178Z,16.6
2016-08-15T01:02:08.068Z,16.6
2016-08-15T01:02:22.201Z,16.5
2016-08-15T01:02:36.321Z,16.5
2016-08-15T01:02:48.184Z,16.5
2016-08-15T01:03:03.809Z,16.5
2016-08-15T01:03:16.408Z,16.4
2016-08-15T01:03:29.766Z,16.5
2016-08-15T01:03:41.654Z,16.5
2016-08-15T01:03:55.760Z,16.4
2016-08-15T01:04:10.624Z,16.3
2016-08-15T01:04:24.754Z,16.5
2016-08-15T01:04:37.366Z,16.5
2016-08-15T01:04:50.731Z,16.3
2016-08-15T01:05:04.842Z,16.3
2016-08-15T01:05:20.504Z,16.4
2016-08-15T01:05:35.365Z,16.4
2016-08-15T01:05:49.533Z,16.5
2016-08-15T01:06:01.432Z,16.5
2016-08-15T01:06:16.298Z,16.5
2016-08-15T01:06:31.167Z,16.5
2016-08-15T01:06:43.782Z,16.6
2016-08-15T01:06:57.945Z,16.6
2016-08-15T01:07:09.826Z,16.5
2016-08-15T01:07:23.186Z,16.4
2016-08-15T01:07:35.048Z,16.5
2016-08-15T01:07:49.162Z,16.5
2016-08-15T01:08:03.304Z,16.5
2016-08-15T01:08:15.955Z,16.5
2016-08-15T01:08:29.340Z,16.4
2016-08-15T01:08:43.451Z,16.4
2016-08-15T01:08:58.331Z,16.3
2016-08-15T01:09:11.688Z,16.3
2016-08-15T01:09:25.803Z,16.5
2016-08-15T01:09:37.680Z,16.4
2016-08-15T01:09:50.295Z,16.5
2016-08-15T01:10:03.659Z,16.4
2016-08-15T01:10:17.779Z,16.5
2016-08-15T01:10:32.676Z,16.4
2016-08-15T01:10:46.793Z,16.4
2016-08-15T01:11:01.659Z,16.4
2016-08-15T01:11:15.756Z,16.5
2016-08-15T01:11:30.651Z,16.6
2016-08-15T01:11:44.786Z,16.5
2016-08-15T01:11:58.895Z,16.6
2016-08-15T01:12:13.027Z,16.6
2016-08-15T01:12:27.120Z,16.5
2016-08-15T01:12:41.262Z,16.5
2016-08-15T01:12:56.124Z,16.5
2016-08-15T01:13:08.741Z,16.7
2016-08-15T01:13:22.171Z,16.5
2016-08-15T01:13:36.289Z,16.5
2016-08-15T01:13:48.918Z,16.7
2016-08-15T01:14:01.525Z,16.6
2016-08-15T01:14:14.182Z,16.6
2016-08-15T01:14:29.037Z,16.5
2016-08-15T01:14:40.180Z,16.5
2016-08-15T01:14:53.620Z,16.5
2016-08-15T01:15:06.988Z,16.5
2016-08-15T01:15:20.398Z,16.6
2016-08-15T01:15:36.019Z,16.6
2016-08-15T01:15:50.155Z,16.7
2016-08-15T01:16:03.510Z,16.7
2016-08-15T01:16:17.638Z,16.6
2016-08-15T01:16:29.515Z,16.6
2016-08-15T01:16:43.631Z,16.5
2016-08-15T01:16:57.768Z,16.5
2016-08-15T01:17:11.956Z,16.6
2016-08-15T01:17:27.574Z,16.5
2016-08-15T01:17:41.681Z,16.6
2016-08-15T01:17:55.037Z,16.6
2016-08-15T01:18:07.686Z,16.7
2016-08-15T01:18:21.043Z,16.6
2016-08-15T01:18:35.929Z,16.8
2016-08-15T01:18:50.048Z,16.8
2016-08-15T01:19:04.172Z,16.7
2016-08-15T01:19:17.540Z,16.8
2016-08-15T01:19:30.938Z,16.8
2016-08-15T01:19:46.561Z,16.7
2016-08-15T01:19:59.945Z,16.8
2016-08-15T01:20:11.101Z,16.7
2016-08-15T01:20:25.962Z,16.8
2016-08-15T01:20:39.325Z,16.6
2016-08-15T01:20:53.432Z,16.6
2016-08-15T01:21:06.088Z,16.7
2016-08-15T01:21:17.979Z,16.7
2016-08-15T01:21:31.339Z,16.8
2016-08-15T01:21:44.723Z,16.7
2016-08-15T01:21:56.576Z,16.7
2016-08-15T01:22:10.693Z,16.6
2016-08-15T01:22:25.562Z,16.7
2016-08-15T01:22:37.435Z,16.7
2016-08-15T01:22:51.559Z,16.7
2016-08-15T01:23:03.443Z,16.7
2016-08-15T01:23:16.064Z,16.7
2016-08-15T01:23:30.985Z,16.8
2016-08-15T01:23:44.342Z,16.8
2016-08-15T01:23:58.461Z,16.9
2016-08-15T01:24:12.628Z,16.8
2016-08-15T01:24:26.757Z,16.8
2016-08-15T01:24:40.879Z,16.8
2016-08-15T01:24:53.483Z,16.8
2016-08-15T01:25:06.836Z,16.9
2016-08-15T01:25:21.704Z,16.9
2016-08-15T01:25:37.331Z,16.9
2016-08-15T01:25:51.445Z,16.9
2016-08-15T01:26:07.055Z,17
2016-08-15T01:26:20.425Z,16.9
2016-08-15T01:26:35.302Z,16.9
2016-08-15T01:26:50.224Z,16.9
2016-08-15T01:27:03.586Z,16.9
2016-08-15T01:27:16.979Z,16.8
2016-08-15T01:27:30.362Z,16.8
2016-08-15T01:27:44.484Z,16.8
2016-08-15T01:27:59.348Z,16.7
2016-08-15T01:28:11.958Z,16.8
2016-08-15T01:28:26.077Z,16.8
2016-08-15T01:28:39.496Z,16.9
2016-08-15T01:28:52.882Z,16.8
2016-08-15T01:29:05.564Z,16.8
2016-08-15T01:29:20.423Z,16.8
2016-08-15T01:29:33.790Z,16.7
2016-08-15T01:29:49.414Z,16.9
2016-08-15T01:30:05.032Z,16.8
2016-08-15T01:30:19.162Z,16.8
2016-08-15T01:30:31.776Z,16.8
2016-08-15T01:30:45.886Z,16.8
2016-08-15T01:30:59.260Z,16.8
2016-08-15T01:31:11.878Z,16.8
2016-08-15T01:31:27.493Z,16.7
2016-08-15T01:31:38.607Z,16.7
2016-08-15T01:31:49.729Z,16.8
2016-08-15T01:32:03.097Z,16.8
2016-08-15T01:32:15.713Z,16.8
2016-08-15T01:32:28.332Z,16.8
2016-08-15T01:32:42.437Z,16.8
2016-08-15T01:32:57.296Z,16.8
2016-08-15T01:33:10.663Z,16.7
2016-08-15T01:33:23.300Z,16.8
2016-08-15T01:33:35.915Z,16.8
2016-08-15T01:33:50.026Z,16.8
2016-08-15T01:34:04.177Z,16.8
2016-08-15T01:34:19.038Z,16.8
2016-08-15T01:34:30.175Z,16.8
2016-08-15T01:34:45.052Z,16.8
2016-08-15T01:34:55.430Z,16.7
2016-08-15T01:35:08.846Z,16.7
2016-08-15T01:35:22.954Z,16.7
2016-08-15T01:35:35.549Z,16.7
2016-08-15T01:35:48.154Z,16.8
2016-08-15T01:36:02.277Z,16.8
2016-08-15T01:36:14.145Z,16.7
2016-08-15T01:36:28.251Z,16.7
2016-08-15T01:36:41.693Z,16.8
2016-08-15T01:36:55.088Z,16.8
2016-08-15T01:37:08.459Z,16.7
2016-08-15T01:37:21.819Z,16.6
2016-08-15T01:37:35.170Z,16.6
2016-08-15T01:37:47.766Z,16.6
2016-08-15T01:38:01.124Z,16.7
2016-08-15T01:38:13.728Z,16.7
2016-08-15T01:38:28.604Z,16.8
2016-08-15T01:38:40.529Z,16.8
2016-08-15T01:38:54.659Z,16.8
2016-08-15T01:39:08.788Z,16.8
2016-08-15T01:39:22.892Z,16.7
2016-08-15T01:39:35.489Z,16.7
2016-08-15T01:39:47.367Z,16.8
2016-08-15T01:39:59.960Z,16.7
2016-08-15T01:40:12.587Z,16.7
2016-08-15T01:40:26.685Z,16.8
2016-08-15T01:40:40.804Z,16.8
2016-08-15T01:40:54.897Z,16.9
2016-08-15T01:41:08.992Z,16.8
2016-08-15T01:41:23.844Z,16.9
2016-08-15T01:41:37.191Z,16.8
2016-08-15T01:41:50.566Z,16.8
2016-08-15T01:42:04.680Z,16.7
2016-08-15T01:42:18.049Z,16.8
2016-08-15T01:42:28.402Z,16.6
2016-08-15T01:42:41.754Z,16.7
2016-08-15T01:42:54.387Z,16.7
2016-08-15T01:43:07.014Z,16.7
2016-08-15T01:43:20.365Z,16.7
2016-08-15T01:43:35.227Z,16.8
2016-08-15T01:43:47.083Z,16.9
2016-08-15T01:44:01.191Z,16.9
2016-08-15T01:44:16.072Z,17
2016-08-15T01:44:30.945Z,17
2016-08-15T01:44:42.788Z,17
2016-08-15T01:44:57.656Z,17
2016-08-15T01:45:11.031Z,16.9
2016-08-15T01:45:25.133Z,17
2016-08-15T01:45:37.764Z,17
2016-08-15T01:45:52.632Z,17
2016-08-15T01:46:05.232Z,17
2016-08-15T01:46:17.834Z,17
2016-08-15T01:46:32.690Z,17
2016-08-15T01:46:47.536Z,16.9
2016-08-15T01:47:01.629Z,17
2016-08-15T01:47:15.741Z,16.9
2016-08-15T01:47:30.595Z,16.9
2016-08-15T01:47:45.460Z,16.9
2016-08-15T01:48:00.355Z,16.9
2016-08-15T01:48:15.216Z,16.8
2016-08-15T01:48:30.062Z,16.9
2016-08-15T01:48:41.930Z,16.9
2016-08-15T01:48:56.056Z,16.9
2016-08-15T01:49:09.448Z,16.9
2016-08-15T01:49:25.056Z,16.9
2016-08-15T01:49:39.917Z,16.9
2016-08-15T01:49:51.767Z,16.9
2016-08-15T01:50:06.629Z,16.9
2016-08-15T01:50:21.496Z,17
2016-08-15T01:50:33.371Z,17.1
2016-08-15T01:50:46.753Z,17
2016-08-15T01:50:57.970Z,17.1
2016-08-15T01:51:10.605Z,17
2016-08-15T01:51:25.482Z,17
2016-08-15T01:51:39.589Z,17.1
2016-08-15T01:51:54.453Z,17.2
2016-08-15T01:52:07.811Z,17.1
2016-08-15T01:52:22.692Z,17.2
2016-08-15T01:52:36.810Z,17.1
2016-08-15T01:52:49.446Z,17.2
2016-08-15T01:53:03.581Z,17.1
2016-08-15T01:53:17.698Z,17.2
2016-08-15T01:53:30.308Z,17.2
2016-08-15T01:53:44.441Z,17.1
2016-08-15T01:53:56.319Z,17.2
2016-08-15T01:54:08.952Z,17.2
2016-08-15T01:54:21.550Z,17.2
2016-08-15T01:54:35.668Z,17.3
2016-08-15T01:54:50.532Z,17.2
2016-08-15T01:55:06.145Z,17.3
2016-08-15T01:55:19.512Z,17.3
2016-08-15T01:55:31.398Z,17.4
2016-08-15T01:55:44.017Z,17.3
2016-08-15T01:55:57.384Z,17.4
2016-08-15T01:56:10.769Z,17.3
2016-08-15T01:56:24.144Z,17.3
2016-08-15T01:56:34.528Z,17.3
2016-08-15T01:56:46.408Z,17.4
2016-08-15T01:56:59.798Z,17.4
2016-08-15T01:57:11.701Z,17.3
2016-08-15T01:57:25.057Z,17.4
2016-08-15T01:57:40.667Z,17.4
2016-08-15T01:57:54.064Z,17.4
2016-08-15T01:58:06.727Z,17.5
2016-08-15T01:58:20.111Z,17.5
2016-08-15T01:58:33.463Z,17.4
2016-08-15T01:58:49.083Z,17.4
2016-08-15T01:59:02.463Z,17.4
2016-08-15T01:59:17.327Z,17.4
2016-08-15T01:59:31.459Z,17.5
2016-08-15T01:59:45.572Z,17.5
2016-08-15T01:59:58.206Z,17.5
2016-08-15T02:00:11.570Z,17.5
2016-08-15T02:00:25.700Z,17.5
2016-08-15T02:00:39.060Z,17.5
2016-08-15T02:00:53.258Z,17.6
2016-08-15T02:01:08.857Z,17.5
2016-08-15T02:01:22.238Z,17.4
2016-08-15T02:01:35.606Z,17.3
2016-08-15T02:01:48.235Z,17.3
2016-08-15T02:02:00.833Z,17.4
2016-08-15T02:02:11.957Z,17.3
2016-08-15T02:02:26.843Z,17.4
2016-08-15T02:02:39.468Z,17.3
2016-08-15T02:02:52.093Z,17.3
2016-08-15T02:03:04.707Z,17.3
2016-08-15T02:03:18.072Z,17.3
2016-08-15T02:03:29.191Z,17.2
2016-08-15T02:03:42.573Z,17.2
2016-08-15T02:03:55.941Z,17.2
2016-08-15T02:04:10.800Z,17.3
2016-08-15T02:04:26.422Z,17.4
2016-08-15T02:04:40.538Z,17.4
2016-08-15T02:04:55.391Z,17.3
2016-08-15T02:05:08.779Z,17.5
2016-08-15T02:05:22.143Z,17.4
2016-08-15T02:05:35.502Z,17.4
2016-08-15T02:05:49.815Z,17.3
2016-08-15T02:06:03.985Z,17.3
2016-08-15T02:06:18.865Z,17.3
2016-08-15T02:06:33.754Z,17.3
2016-08-15T02:06:48.671Z,17.2
2016-08-15T02:07:01.282Z,17.2
2016-08-15T02:07:14.637Z,17.2
2016-08-15T02:07:27.255Z,17.2
2016-08-15T02:07:39.861Z,17.4
2016-08-15T02:07:51.756Z,17.4
2016-08-15T02:08:05.868Z,17.4
2016-08-15T02:08:17.743Z,17.4
2016-08-15T02:08:31.880Z,17.4
2016-08-15T02:08:45.998Z,17.4
2016-08-15T02:08:58.631Z,17.5
2016-08-15T02:09:12.766Z,17.5
2016-08-15T02:09:26.145Z,17.4
2016-08-15T02:09:39.535Z,17.4
2016-08-15T02:09:55.159Z,17.4
2016-08-15T02:10:09.312Z,17.4
2016-08-15T02:10:21.914Z,17.5
2016-08-15T02:10:34.575Z,17.4
2016-08-15T02:10:47.191Z,17.4
2016-08-15T02:10:57.552Z,17.4
2016-08-15T02:11:10.917Z,17.3
2016-08-15T02:11:24.329Z,17.3
2016-08-15T02:11:38.650Z,17.2
2016-08-15T02:11:51.999Z,17.2
2016-08-15T02:12:03.114Z,17.2
2016-08-15T02:12:17.242Z,17.2
2016-08-15T02:12:32.127Z,17.2
2016-08-15T02:12:44.746Z,17.2
2016-08-15T02:13:00.359Z,17.2
2016-08-15T02:13:13.716Z,17.2
2016-08-15T02:13:26.311Z,17.1
2016-08-15T02:13:41.924Z,17.2
2016-08-15T02:13:57.549Z,17.1
2016-08-15T02:14:11.653Z,17.1
2016-08-15T02:14:24.266Z,17.1
2016-08-15T02:14:39.135Z,17.1
2016-08-15T02:14:51.767Z,17.1
2016-08-15T02:15:06.635Z,17.1
2016-08-15T02:15:20.763Z,17.1
2016-08-15T02:15:34.884Z,17.2
2016-08-15T02:15:48.992Z,17.1
2016-08-15T02:16:01.622Z,17
2016-08-15T02:16:16.482Z,17.2
2016-08-15T02:16:29.833Z,17.1
2016-08-15T02:16:44.708Z,17.1
2016-08-15T02:16:57.340Z,17.1
2016-08-15T02:17:09.190Z,17.1
2016-08-15T02:17:23.308Z,17
2016-08-15T02:17:38.930Z,17.1
2016-08-15T02:17:52.288Z,17.1
2016-08-15T02:18:04.916Z,17.1
2016-08-15T02:18:19.026Z,17.1
2016-08-15T02:18:30.133Z,17.2
2016-08-15T02:18:42.772Z,17.1
2016-08-15T02:18:56.884Z,17.1
2016-08-15T02:19:11.012Z,17.1
2016-08-15T02:19:24.402Z,17.1
2016-08-15T02:19:37.776Z,17.1
2016-08-15T02:19:51.218Z,17.1
2016-08-15T02:20:03.096Z,17.1
2016-08-15T02:20:17.965Z,17.1
2016-08-15T02:20:30.612Z,17
2016-08-15T02:20:43.980Z,17
2016-08-15T02:20:58.891Z,16.9
2016-08-15T02:21:13.028Z,17.1
2016-08-15T02:21:26.416Z,17.1
2016-08-15T02:21:37.518Z,17.1
2016-08-15T02:21:51.645Z,17
2016-08-15T02:22:06.503Z,17
2016-08-15T02:22:19.860Z,17
2016-08-15T02:22:33.971Z,17
2016-08-15T02:22:48.092Z,16.9
2016-08-15T02:23:02.949Z,17.1
2016-08-15T02:23:17.823Z,17.1
2016-08-15T02:23:31.922Z,17.1
2016-08-15T02:23:45.298Z,17.1
2016-08-15T02:23:58.689Z,17.1
2016-08-15T02:24:13.557Z,17.1
2016-08-15T02:24:28.420Z,17.1
2016-08-15T02:24:41.790Z,17
2016-08-15T02:24:55.170Z,17
2016-08-15T02:25:10.792Z,17.1
2016-08-15T02:25:23.396Z,17.1
2016-08-15T02:25:35.247Z,17
2016-08-15T02:25:48.617Z,17.1
2016-08-15T02:26:03.496Z,17
2016-08-15T02:26:16.113Z,17.1
2016-08-15T02:26:30.260Z,17.1
2016-08-15T02:26:40.665Z,17.1
2016-08-15T02:26:55.521Z,17.1
2016-08-15T02:27:08.993Z,17
2016-08-15T02:27:23.114Z,17.1
2016-08-15T02:27:37.222Z,17.1
2016-08-15T02:27:52.097Z,17.2
2016-08-15T02:28:06.241Z,17.1
2016-08-15T02:28:20.357Z,17.3
2016-08-15T02:28:34.490Z,17.2
2016-08-15T02:28:47.110Z,17.2
2016-08-15T02:29:00.503Z,17.2
2016-08-15T02:29:13.883Z,17.2
2016-08-15T02:29:28.007Z,17.1
2016-08-15T02:29:40.641Z,17.2
2016-08-15T02:29:54.744Z,17.3
2016-08-15T02:30:07.354Z,17.3
2016-08-15T02:30:19.962Z,17.3
2016-08-15T02:30:34.084Z,17.3
2016-08-15T02:30:46.700Z,17.2
2016-08-15T02:31:00.834Z,17.2
2016-08-15T02:31:14.212Z,17.2
2016-08-15T02:31:26.055Z,17.1
2016-08-15T02:31:40.167Z,17.1
2016-08-15T02:31:54.013Z,17.1
2016-08-15T02:32:07.380Z,17.2
2016-08-15T02:32:21.502Z,17.2
2016-08-15T02:32:34.865Z,17.3
2016-08-15T02:32:48.983Z,17.4
2016-08-15T02:33:01.588Z,17.4
2016-08-15T02:33:15.727Z,17.5
2016-08-15T02:33:26.871Z,17.6
2016-08-15T02:33:38.754Z,17.6
2016-08-15T02:33:51.375Z,17.6
2016-08-15T02:34:07.000Z,17.5
2016-08-15T02:34:21.114Z,17.5
2016-08-15T02:34:33.747Z,17.5
2016-08-15T02:34:48.622Z,17.6
2016-08-15T02:35:01.994Z,17.6
2016-08-15T02:35:14.605Z,17.5
2016-08-15T02:35:29.571Z,17.5
2016-08-15T02:35:42.946Z,17.5
2016-08-15T02:35:55.572Z,17.4
2016-08-15T02:36:11.183Z,17.4
2016-08-15T02:36:26.089Z,17.4
2016-08-15T02:36:39.448Z,17.4
2016-08-15T02:36:53.561Z,17.3
2016-08-15T02:37:04.667Z,17.2
2016-08-15T02:37:18.807Z,17.2
2016-08-15T02:37:32.186Z,17.2
2016-08-15T02:37:44.055Z,17.2
2016-08-15T02:37:58.165Z,17.2
2016-08-15T02:38:10.020Z,17.2
2016-08-15T02:38:22.631Z,17.2
2016-08-15T02:38:35.996Z,17.2
2016-08-15T02:38:50.861Z,17.2
2016-08-15T02:39:04.975Z,17.2
2016-08-15T02:39:18.335Z,17.3
2016-08-15T02:39:30.207Z,17.4
2016-08-15T02:39:43.591Z,17.3
2016-08-15T02:39:56.228Z,17.3
2016-08-15T02:40:08.868Z,17.2
2016-08-15T02:40:22.972Z,17.1
2016-08-15T02:40:37.839Z,17.2
2016-08-15T02:40:51.953Z,17.2
2016-08-15T02:41:06.112Z,17.2
2016-08-15T02:41:19.490Z,17.1
2016-08-15T02:41:33.605Z,17.2
2016-08-15T02:41:46.217Z,17.2
2016-08-15T02:41:59.570Z,17.2
2016-08-15T02:42:12.939Z,17.2
2016-08-15T02:42:25.567Z,17.3
2016-08-15T02:42:36.682Z,17.1
2016-08-15T02:42:51.600Z,17.2
2016-08-15T02:43:06.491Z,17.1
2016-08-15T02:43:20.599Z,17.1
2016-08-15T02:43:34.791Z,17.1
2016-08-15T02:43:48.220Z,17.1
2016-08-15T02:44:00.849Z,17
2016-08-15T02:44:15.035Z,17.1
2016-08-15T02:44:28.397Z,17
2016-08-15T02:44:41.029Z,17.1
2016-08-15T02:44:55.165Z,17.2
2016-08-15T02:45:09.295Z,17.1
2016-08-15T02:45:23.465Z,17.1
2016-08-15T02:45:38.337Z,17.1
2016-08-15T02:45:54.023Z,17.1
2016-08-15T02:46:07.394Z,17.1
2016-08-15T02:46:20.035Z,17
2016-08-15T02:46:33.420Z,17.1
2016-08-15T02:46:48.289Z,17.1
2016-08-15T02:47:02.397Z,17.1
2016-08-15T02:47:16.498Z,17.1
2016-08-15T02:47:29.097Z,17
2016-08-15T02:47:41.704Z,17
2016-08-15T02:47:53.572Z,17
2016-08-15T02:48:06.178Z,17
2016-08-15T02:48:18.787Z,17
2016-08-15T02:48:32.907Z,17
2016-08-15T02:48:44.780Z,17
2016-08-15T02:48:58.935Z,16.9
2016-08-15T02:49:11.578Z,16.9
2016-08-15T02:49:24.925Z,17
2016-08-15T02:49:38.295Z,16.9
2016-08-15T02:49:52.432Z,17
2016-08-15T02:50:07.283Z,16.9
2016-08-15T02:50:19.157Z,16.9
2016-08-15T02:50:32.532Z,16.9
2016-08-15T02:50:45.187Z,17
2016-08-15T02:50:59.306Z,16.9
2016-08-15T02:51:14.168Z,16.8
2016-08-15T02:51:27.531Z,16.9
2016-08-15T02:51:41.637Z,17
2016-08-15T02:51:55.739Z,16.9
2016-08-15T02:52:10.655Z,16.9
2016-08-15T02:52:23.301Z,16.9
2016-08-15T02:52:35.213Z,17.1
2016-08-15T02:52:47.811Z,16.9
2016-08-15T02:53:03.474Z,17
2016-08-15T02:53:16.837Z,17.1
2016-08-15T02:53:29.466Z,17
2016-08-15T02:53:40.563Z,17.1
2016-08-15T02:53:53.933Z,17.1
2016-08-15T02:54:08.796Z,16.9
2016-08-15T02:54:21.419Z,17
2016-08-15T02:54:33.394Z,17
2016-08-15T02:54:47.635Z,16.9
2016-08-15T02:54:59.503Z,16.9
2016-08-15T02:55:11.484Z,16.9
2016-08-15T02:55:24.114Z,16.9
2016-08-15T02:55:36.726Z,16.9
2016-08-15T02:55:49.428Z,16.9
2016-08-15T02:56:03.553Z,16.8
2016-08-15T02:56:16.189Z,16.8
2016-08-15T02:56:29.548Z,16.8
2016-08-15T02:56:44.413Z,16.8
2016-08-15T02:56:57.774Z,16.9
2016-08-15T02:57:10.401Z,16.9
2016-08-15T02:57:24.532Z,16.9
2016-08-15T02:57:37.915Z,16.9
2016-08-15T02:57:51.299Z,17
2016-08-15T02:58:05.407Z,17
2016-08-15T02:58:18.023Z,17.1
2016-08-15T02:58:28.400Z,17
2016-08-15T02:58:40.252Z,17
2016-08-15T02:58:53.635Z,17
2016-08-15T02:59:07.022Z,16.9
2016-08-15T02:59:20.385Z,16.9
2016-08-15T02:59:33.009Z,16.8
2016-08-15T02:59:44.127Z,16.9
2016-08-15T02:59:57.484Z,17
2016-08-15T03:00:11.696Z,17.1
2016-08-15T03:00:25.832Z,16.9
2016-08-15T03:00:40.002Z,16.9
2016-08-15T03:00:54.112Z,16.9
2016-08-15T03:01:08.262Z,17
2016-08-15T03:01:22.379Z,17